Time;durP1;ratioP1;P1;durP2;ratioP2;P2;SDS_P1;SDS_P2;PMS_P1;PMS_P2;Temp;Humidity;BMP_temperature;BMP_pressure;BME280_temperature;BME280_humidity;BME280_pressure;Samples;Min_cycle;Max_cycle;Signal;HPM_P1;HPM_P2
2022/04/22 00:00:17;;;;;;;56.20;32.20;;;;;;;7.88;80.70;97879.33;105510;1282;138035;-74
2022/04/22 00:03:04;;;;;;;54.10;32.50;;;;;;;7.89;80.88;97878.79;105486;1284;25274;-73
2022/04/22 00:05:31;;;;;;;59.00;36.20;;;;;;;7.90;81.11;97877.34;105608;1284;138633;-73
2022/04/22 00:07:58;;;;;;;58.90;34.00;;;;;;;7.89;80.65;97878.48;105596;1284;22559;-73
2022/04/22 00:10:25;;;;;;;55.90;31.90;;;;;;;7.89;80.84;97882.05;105762;1282;22572;-73
2022/04/22 00:12:52;;;;;;;54.10;32.30;;;;;;;7.90;80.88;97883.04;105669;1282;138435;-73
2022/04/22 00:15:20;;;;;;;54.20;32.80;;;;;;;7.91;81.26;97876.34;105623;1284;22548;-73
2022/04/22 00:17:50;;;;;;;58.90;36.70;;;;;;;7.92;81.16;97872.83;105641;1282;138594;-73
2022/04/22 00:20:17;;;;;;;64.70;37.70;;;;;;;7.91;81.52;97873.95;105790;1281;22861;-74
2022/04/22 00:22:45;;;;;;;60.90;35.00;;;;;;;7.91;81.54;97869.83;105424;1284;137747;-73
2022/04/22 00:25:25;;;;;;;58.60;35.20;;;;;;;7.91;81.03;97865.05;105505;1284;22760;-73
2022/04/22 00:27:52;;;;;;;57.40;33.90;;;;;;;7.89;81.12;97863.45;105538;1284;22559;-73
2022/04/22 00:30:19;;;;;;;56.20;34.70;;;;;;;7.87;80.95;97860.98;105511;1284;137862;-73
2022/04/22 00:32:46;;;;;;;58.10;35.50;;;;;;;7.85;81.15;97863.05;105693;1282;24369;-73
2022/04/22 00:35:13;;;;;;;58.10;35.00;;;;;;;7.83;81.15;97858.55;105512;1282;137760;-73
2022/04/22 00:37:42;;;;;;;57.30;33.40;;;;;;;7.77;81.28;97856.23;105630;1282;25314;-73
2022/04/22 00:40:09;;;;;;;58.20;35.10;;;;;;;7.73;81.13;97850.79;105660;1282;22704;-74
2022/04/22 00:42:38;;;;;;;56.60;34.30;;;;;;;7.67;81.04;97849.80;105591;1282;138589;-74
2022/04/22 00:45:06;;;;;;;52.00;32.10;;;;;;;7.62;81.21;97848.02;105604;1284;22625;-73
2022/04/22 00:47:35;;;;;;;50.20;30.90;;;;;;;7.58;81.12;97843.23;105321;1284;137920;-73
2022/04/22 00:50:16;;;;;;;56.00;32.70;;;;;;;7.54;81.27;97837.73;105607;1284;23450;-73
2022/04/22 00:52:43;;;;;;;54.50;33.30;;;;;;;7.52;81.48;97835.04;105446;1282;137957;-73
2022/04/22 00:55:11;;;;;;;50.50;30.50;;;;;;;7.51;81.41;97838.02;105579;1282;22862;-73
2022/04/22 00:57:37;;;;;;;56.20;33.20;;;;;;;7.53;81.71;97836.09;105667;1282;24287;-74
2022/04/22 01:00:06;;;;;;;47.40;28.40;;;;;;;7.55;81.57;97837.87;105863;1282;138368;-73
2022/04/22 01:02:32;;;;;;;50.70;29.30;;;;;;;7.54;81.46;97829.11;105679;1282;23854;-73
2022/04/22 01:10:25;;;;;;;49.10;28.50;;;;;;;7.51;81.41;97834.21;105412;1284;22583;-73
2022/04/22 01:12:52;;;;;;;45.50;27.70;;;;;;;7.51;81.55;97831.17;105312;1282;138396;-74
2022/04/22 01:15:19;;;;;;;49.00;29.10;;;;;;;7.50;81.28;97829.09;105575;1282;22887;-75
2022/04/22 01:17:47;;;;;;;44.30;26.80;;;;;;;7.51;81.36;97828.35;105135;1282;138338;-74
2022/04/22 01:20:17;;;;;;;47.10;29.70;;;;;;;7.52;81.68;97831.64;105483;1281;23953;-76
2022/04/22 01:22:46;;;;;;;47.60;28.90;;;;;;;7.53;81.67;97830.25;105104;1284;137970;-75
2022/04/22 01:25:13;;;;;;;44.10;28.70;;;;;;;7.56;81.83;97833.92;105321;1284;23191;-73
2022/04/22 01:27:42;;;;;;;50.40;29.90;;;;;;;7.58;81.87;97833.53;105567;1284;23338;-73
2022/04/22 01:30:09;;;;;;;46.80;28.30;;;;;;;7.60;82.05;97828.27;105549;1282;138906;-73
2022/04/22 01:32:37;;;;;;;44.40;27.10;;;;;;;7.64;81.84;97835.33;105449;1283;25240;-73
2022/04/22 01:35:05;;;;;;;48.90;29.40;;;;;;;7.64;81.64;97833.09;105439;1284;138083;-73
2022/04/22 01:37:37;;;;;;;44.70;28.80;;;;;;;7.59;81.30;97830.52;105600;1282;22579;-73
2022/04/22 01:40:05;;;;;;;46.30;29.10;;;;;;;7.58;81.65;97830.40;105675;1282;22544;-73
2022/04/22 01:42:34;;;;;;;49.80;29.90;;;;;;;7.59;81.89;97829.54;105407;1282;138541;-72
2022/04/22 01:45:01;;;;;;;43.80;27.80;;;;;;;7.63;81.64;97824.83;105550;1284;25506;-73
2022/04/22 01:47:29;;;;;;;47.30;29.90;;;;;;;7.63;81.78;97826.61;105365;1284;138182;-73
2022/04/22 01:49:57;;;;;;;50.10;30.00;;;;;;;7.64;81.82;97823.77;105880;1284;24224;-73
2022/04/22 01:52:24;;;;;;;53.10;30.80;;;;;;;7.64;81.58;97825.84;105594;1283;22548;-72
2022/04/22 01:54:53;;;;;;;51.20;29.50;;;;;;;7.64;81.69;97826.65;105500;1284;137849;-73
2022/04/22 01:57:21;;;;;;;;;;;;;;;7.63;81.54;97823.87;105593;1284;25558;-73
2022/04/22 01:59:48;;;;;;;48.70;27.50;;;;;;;7.62;81.62;97819.23;105515;1284;125199;-73
2022/04/22 02:02:17;;;;;;;43.70;28.80;;;;;;;7.60;81.59;97820.51;105566;1284;24401;-73
2022/04/22 02:04:45;;;;;;;46.80;29.10;;;;;;;7.58;81.49;97817.23;105364;1283;138549;-73
2022/04/22 02:07:12;;;;;;;50.30;29.60;;;;;;;7.56;81.82;97819.89;105252;1284;22575;-73
2022/04/22 02:09:39;;;;;;;42.00;28.40;;;;;;;7.56;81.72;97818.91;105783;1284;24310;-73
2022/04/22 02:12:09;;;;;;;49.40;30.90;;;;;;;7.57;81.79;97819.14;105494;1284;138764;-73
2022/04/22 02:14:36;;;;;;;45.20;27.40;;;;;;;7.58;82.06;97816.30;105625;1281;22772;-73
2022/04/22 02:17:03;;;;;;;42.30;27.70;;;;;;;7.62;82.22;97809.87;105408;1281;138318;-72
2022/04/22 02:19:31;;;;;;;45.10;28.90;;;;;;;7.66;81.98;97808.87;105594;1281;22569;-73
2022/04/22 02:21:58;;;;;;;49.10;30.30;;;;;;;7.69;82.05;97804.45;105741;1281;22570;-73
2022/04/22 02:24:25;;;;;;;51.60;31.60;;;;;;;7.71;81.67;97803.42;105980;1281;137910;-73
2022/04/22 02:29:46;;;;;;;48.50;30.50;;;;;;;7.65;81.53;97797.30;105521;1282;138838;-73
2022/04/22 02:32:14;;;;;;;47.00;29.70;;;;;;;7.64;81.48;97795.66;105783;1284;23965;-73
2022/04/22 02:34:44;;;;;;;46.60;27.70;;;;;;;7.64;81.61;97797.88;105668;1282;138792;-73
2022/04/22 02:37:11;;;;;;;47.00;28.10;;;;;;;7.63;81.78;97802.39;105747;1282;24277;-73
2022/04/22 02:39:38;;;;;;;47.90;28.80;;;;;;;7.63;81.69;97801.27;106401;1282;24243;-73
2022/04/22 02:45:34;;;;;;;42.60;27.30;;;;;;;7.61;81.70;97793.33;105801;1281;25341;-72
2022/04/22 02:47:34;;;;;;;43.50;26.30;;;;;;;7.62;81.62;97792.67;105481;1282;138394;-72
2022/04/22 02:50:01;;;;;;;44.50;28.00;;;;;;;7.62;81.61;97794.68;105734;1282;22661;-72
2022/04/22 02:52:28;;;;;;;47.30;29.60;;;;;;;7.64;81.73;97794.66;105332;1282;22549;-72
2022/04/22 02:54:55;;;;;;;49.40;30.30;;;;;;;7.64;81.75;97789.15;105669;1281;137560;-74
2022/04/22 02:57:36;;;;;;;49.80;30.90;;;;;;;7.61;81.59;97786.00;105892;1281;22578;-72
2022/04/22 03:00:03;;;;;;;43.70;27.70;;;;;;;7.55;81.79;97788.70;105795;1281;137639;-72
2022/04/22 03:02:30;;;;;;;47.70;28.40;;;;;;;7.50;81.68;97787.84;105725;1281;22587;-74
2022/04/22 03:04:58;;;;;;;48.10;27.30;;;;;;;7.48;81.88;97788.57;105499;1282;138234;-74
2022/04/22 03:07:25;;;;;;;48.20;28.60;;;;;;;7.45;82.00;97785.81;105918;1281;25426;-73
2022/04/22 03:09:52;;;;;;;44.30;29.70;;;;;;;7.43;82.08;97781.45;105639;1282;22559;-72
2022/04/22 03:12:19;;;;;;;46.30;27.00;;;;;;;7.43;82.05;97779.21;105572;1281;137771;-72
2022/04/22 03:14:46;;;;;;;44.20;28.80;;;;;;;7.43;82.34;97778.67;105777;1281;22583;-73
2022/04/22 03:17:13;;;;;;;46.10;28.30;;;;;;;7.42;82.44;97772.42;106117;1281;138705;-72
2022/04/22 03:19:40;;;;;;;40.90;26.40;;;;;;;7.42;82.26;97767.43;105709;1281;23052;-72
2022/04/22 03:22:07;;;;;;;41.20;26.30;;;;;;;7.42;82.24;97765.76;105595;1281;22678;-73
2022/04/22 03:24:34;;;;;;;42.20;27.30;;;;;;;7.44;82.64;97764.26;105622;1281;137813;-73
2022/04/22 03:27:01;;;;;;;38.70;23.90;;;;;;;7.44;82.53;97760.33;105607;1282;22557;-73
2022/04/22 03:29:28;;;;;;;30.50;20.10;;;;;;;7.45;82.80;97759.52;105514;1282;137685;-73
2022/04/22 03:31:59;;;;;;;34.10;21.20;;;;;;;7.46;82.64;97764.88;105737;1282;22865;-73
2022/04/22 03:34:29;;;;;;;32.20;18.20;;;;;;;7.48;82.43;97762.35;105659;1282;24445;-73
2022/04/22 03:36:56;;;;;;;33.30;21.00;;;;;;;7.50;82.46;97763.80;105570;1282;137982;-73
2022/04/22 03:39:36;;;;;;;36.00;20.10;;;;;;;7.49;82.34;97763.19;105800;1282;24342;-73
2022/04/22 03:42:04;;;;;;;35.30;20.70;;;;;;;7.47;82.40;97759.89;105547;1282;137641;-73
2022/04/22 03:44:31;;;;;;;35.00;21.10;;;;;;;7.46;82.50;97759.17;105713;1282;22707;-73
2022/04/22 03:47:12;;;;;;;32.80;20.80;;;;;;;7.45;82.60;97764.13;105463;1282;139254;-73
2022/04/22 03:49:39;;;;;;;30.60;18.00;;;;;;;7.48;82.72;97762.63;105612;1282;24364;-73
2022/04/22 03:52:06;;;;;;;31.80;19.40;;;;;;;7.51;82.81;97756.18;105679;1282;22676;-73
2022/04/22 03:54:33;;;;;;;32.70;20.60;;;;;;;7.54;82.76;97755.65;105426;1283;138024;-73
2022/04/22 03:59:45;;;;;;;35.60;21.40;;;;;;;7.55;82.50;97753.80;105567;1282;137629;-73
2022/04/22 04:02:26;;;;;;;35.60;21.70;;;;;;;7.54;82.52;97752.23;105535;1284;24350;-74
2022/04/22 04:04:52;;;;;;;32.00;19.20;;;;;;;7.53;82.42;97754.60;105509;1284;138551;-74
2022/04/22 04:07:19;;;;;;;33.70;19.60;;;;;;;7.54;82.58;97755.70;105487;1282;23890;-73
2022/04/22 04:17:51;;;;;;;37.60;23.10;;;;;;;7.56;82.72;97767.15;105538;1282;138486;-73
2022/04/22 04:23:17;;;;;;;45.10;25.20;;;;;;;7.59;82.66;97766.35;105665;1282;123881;-73
2022/04/22 04:25:47;;;;;;;40.60;25.30;;;;;;;7.60;82.52;97766.27;105680;1281;23928;-73
2022/04/22 04:28:15;;;;;;;44.60;26.30;;;;;;;7.60;82.56;97761.81;105643;1282;24413;-72
2022/04/22 04:30:44;;;;;;;39.30;24.60;;;;;;;7.61;82.60;97764.97;105539;1281;138559;-73
2022/04/22 04:33:11;;;;;;;36.80;23.00;;;;;;;7.61;82.77;97762.42;105915;1281;22734;-73
2022/04/22 04:35:39;;;;;;;39.80;23.70;;;;;;;7.61;82.61;97765.30;105599;1281;137772;-73
2022/04/22 04:38:07;;;;;;;39.30;23.70;;;;;;;7.61;82.73;97770.71;105556;1282;22714;-73
2022/04/22 04:40:35;;;;;;;34.00;21.60;;;;;;;7.61;82.88;97773.75;105586;1282;24294;-73
2022/04/22 04:43:08;;;;;;;39.60;23.20;;;;;;;7.64;82.61;97775.04;105439;1284;138661;-73
2022/04/22 04:45:50;;;;;;;36.50;21.10;;;;;;;7.68;82.96;97773.93;105659;1284;22547;-73
2022/04/22 04:48:20;;;;;;;39.70;22.20;;;;;;;7.73;82.99;97775.87;105445;1282;138002;-73
2022/04/22 04:51:00;;;;;;;36.50;23.00;;;;;;;7.73;83.08;97767.73;105564;1282;22576;-73
2022/04/22 04:53:27;;;;;;;39.40;22.70;;;;;;;7.79;82.92;97777.44;105448;1282;137841;-73
2022/04/22 04:56:08;;;;;;;35.80;22.20;;;;;;;7.79;83.08;97778.43;105614;1282;22698;-73
2022/04/22 04:58:36;;;;;;;42.00;22.70;;;;;;;7.84;82.80;97781.42;105558;1284;22569;-73
2022/04/22 05:01:03;;;;;;;33.20;20.50;;;;;;;7.87;82.61;97786.05;105484;1283;137997;-73
2022/04/22 05:03:30;;;;;;;36.80;21.90;;;;;;;7.91;82.52;97785.09;105602;1283;25532;-73
2022/04/22 05:05:57;;;;;;;42.70;23.60;;;;;;;7.94;82.64;97788.55;105491;1282;137808;-73
2022/04/22 05:08:26;;;;;;;40.70;22.60;;;;;;;7.98;82.34;97792.14;105603;1281;22704;-73
2022/04/22 05:10:53;;;;;;;39.60;23.00;;;;;;;8.00;82.27;97792.73;105624;1281;137872;-73
2022/04/22 05:13:21;;;;;;;37.00;23.20;;;;;;;8.03;82.45;97789.58;105647;1281;22546;-73
2022/04/22 05:15:51;;;;;;;37.90;22.10;;;;;;;8.06;82.24;97792.06;105752;1281;25378;-74
2022/04/22 05:18:18;;;;;;;36.80;22.70;;;;;;;8.08;82.03;97791.02;105420;1283;137661;-73
2022/04/22 05:20:47;;;;;;;41.50;23.70;;;;;;;8.10;82.02;97796.95;105642;1282;25410;-73
2022/04/22 05:23:14;;;;;;;40.30;23.00;;;;;;;8.13;82.02;97794.14;105571;1282;137954;-74
2022/04/22 05:25:41;;;;;;;42.40;23.40;;;;;;;8.16;81.96;97796.42;105688;1282;22569;-74
2022/04/22 05:28:08;;;;;;;36.30;21.30;;;;;;;8.22;82.21;97790.70;105670;1281;22711;-74
2022/04/22 05:33:16;;;;;;;39.80;23.10;;;;;;;8.37;82.55;97784.06;105699;1281;24216;-73
2022/04/22 05:35:43;;;;;;;39.00;23.30;;;;;;;8.45;82.34;97783.17;105585;1281;137857;-74
2022/04/22 05:38:24;;;;;;;41.00;23.30;;;;;;;8.51;82.17;97791.20;105683;1281;25332;-74
2022/04/22 05:40:51;;;;;;;37.10;21.60;;;;;;;8.60;82.08;97794.63;105424;1284;138631;-74
2022/04/22 05:43:17;;;;;;;38.80;22.70;;;;;;;8.69;81.93;97798.95;105669;1284;23346;-74
2022/04/22 05:45:44;;;;;;;40.40;21.80;;;;;;;8.73;81.76;97794.71;105465;1284;23935;-74
2022/04/22 05:48:11;;;;;;;38.00;23.00;;;;;;;8.76;81.46;97793.44;105722;1281;137822;-74
2022/04/22 05:50:38;;;;;;;37.10;21.10;;;;;;;8.77;81.14;97794.34;105697;1281;25409;-74
2022/04/22 05:53:06;;;;;;;39.40;21.80;;;;;;;8.77;81.21;97796.84;105617;1281;137913;-74
2022/04/22 05:55:33;;;;;;;35.20;20.80;;;;;;;8.77;81.20;97798.35;105699;1282;22863;-74
2022/04/22 05:58:00;;;;;;;39.10;21.10;;;;;;;8.78;81.21;97797.94;105653;1282;24303;-73
2022/04/22 06:00:30;;;;;;;36.10;21.50;;;;;;;8.81;80.95;97792.27;105300;1285;137694;-73
2022/04/22 06:03:11;;;;;;;39.50;22.00;;;;;;;8.85;81.31;97790.06;105470;1284;24414;-74
2022/04/22 06:05:52;;;;;;;40.50;22.40;;;;;;;8.92;81.18;97784.94;105494;1284;138206;-74
2022/04/22 06:10:59;;;;;;;41.60;21.50;;;;;;;9.05;80.95;97778.48;105655;1281;138740;-74
2022/04/22 06:13:26;;;;;;;35.80;20.30;;;;;;;9.13;81.16;97775.21;105454;1281;22608;-74
2022/04/22 06:15:53;;;;;;;37.00;21.40;;;;;;;9.23;81.08;97770.45;105557;1281;23932;-73
2022/04/22 06:18:20;;;;;;;41.20;21.90;;;;;;;9.32;80.85;97764.85;105420;1281;137684;-74
2022/04/22 06:20:48;;;;;;;49.70;24.30;;;;;;;9.41;80.74;97766.27;105281;1282;25636;-74
2022/04/22 06:23:29;;;;;;;38.70;21.00;;;;;;;9.47;80.01;97764.91;105346;1282;137672;-74
2022/04/22 06:25:56;;;;;;;39.40;22.10;;;;;;;9.51;80.15;97764.58;105387;1282;24243;-74
2022/04/22 06:28:37;;;;;;;36.80;20.30;;;;;;;9.57;80.10;97759.41;105533;1281;22594;-74
2022/04/22 06:31:04;;;;;;;40.00;20.70;;;;;;;9.63;79.99;97758.88;105343;1282;138370;-74
2022/04/22 06:33:31;;;;;;;42.60;23.20;;;;;;;9.66;80.06;97753.96;105494;1282;24425;-74
2022/04/22 06:36:03;;;;;;;44.20;23.40;;;;;;;9.71;79.81;97758.04;105540;1281;137900;-74
2022/04/22 06:38:32;;;;;;;46.10;25.70;;;;;;;9.78;79.71;97758.58;105252;1283;22547;-74
2022/04/22 06:46:33;;;;;;;40.80;22.10;;;;;;;10.02;79.47;97770.34;105809;1282;24743;-74
2022/04/22 06:49:14;;;;;;;39.40;22.10;;;;;;;10.11;79.31;97766.95;105519;1282;138111;-74
2022/04/22 06:51:41;;;;;;;47.10;24.20;;;;;;;10.18;79.30;97768.53;105641;1281;25312;-74
2022/04/22 06:54:08;;;;;;;44.90;24.00;;;;;;;10.26;79.09;97770.27;105602;1281;137992;-74
2022/04/22 06:56:39;;;;;;;49.80;24.40;;;;;;;10.31;79.07;97769.63;105681;1281;22565;-74
2022/04/22 06:59:22;;;;;;;45.80;22.60;;;;;;;10.34;78.37;97762.53;105737;1281;138129;-74
2022/04/22 07:01:49;;;;;;;45.10;24.30;;;;;;;10.36;78.08;97756.83;105629;1284;22557;-74
2022/04/22 07:04:16;;;;;;;40.60;22.10;;;;;;;10.40;78.13;97753.70;105420;1284;22645;-72
2022/04/22 07:06:44;;;;;;;33.60;18.20;;;;;;;10.47;78.15;97753.97;105255;1282;137848;-72
2022/04/22 07:09:12;;;;;;;42.90;24.10;;;;;;;10.60;78.18;97753.58;105399;1281;22669;-72
2022/04/22 07:11:55;;;;;;;39.00;21.80;;;;;;;10.69;77.44;97755.95;106362;1281;138061;-75
2022/04/22 07:14:24;;;;;;;49.50;25.00;;;;;;;10.73;77.07;97758.83;105935;1281;24267;-75
2022/04/22 07:16:51;;;;;;;48.20;25.70;;;;;;;10.72;76.99;97767.64;105958;1281;22577;-75
2022/04/22 07:19:18;;;;;;;45.70;25.00;;;;;;;10.68;76.87;97770.71;105624;1282;138484;-75
2022/04/22 07:21:45;;;;;;;41.10;22.80;;;;;;;10.67;76.96;97778.77;105796;1282;22602;-75
2022/04/22 07:24:13;;;;;;;44.30;24.70;;;;;;;10.61;76.73;97777.81;105489;1282;138681;-75
2022/04/22 07:26:41;;;;;;;46.20;25.90;;;;;;;10.56;76.80;97782.30;106109;1282;24672;-75
2022/04/22 07:29:09;;;;;;;49.50;26.50;;;;;;;10.53;77.11;97783.48;105557;1281;236673;-75
2022/04/22 07:31:36;;;;;;;44.40;23.00;;;;;;;10.50;77.20;97783.01;105731;1282;22567;-75
2022/04/22 07:34:03;;;;;;;45.40;26.30;;;;;;;10.47;77.18;97781.29;105923;1281;22563;-75
2022/04/22 07:36:30;;;;;;;44.00;24.60;;;;;;;10.45;77.17;97785.91;106199;1281;138875;-75
2022/04/22 07:39:11;;;;;;;47.30;24.90;;;;;;;10.47;77.07;97787.50;105979;1281;22557;-73
2022/04/22 07:41:39;;;;;;;41.80;22.90;;;;;;;10.45;77.19;97786.08;105558;1282;138569;-73
2022/04/22 07:46:58;;;;;;;48.70;26.60;;;;;;;10.37;76.98;97784.05;105601;1282;24495;-75
2022/04/22 07:49:26;;;;;;;52.60;26.10;;;;;;;10.33;77.42;97785.98;105909;1281;137923;-73
2022/04/22 07:51:53;;;;;;;43.20;23.20;;;;;;;10.28;76.99;97784.22;106199;1281;22556;-73
2022/04/22 07:54:20;;;;;;;44.60;23.00;;;;;;;10.25;77.13;97788.28;105666;1282;138572;-73
2022/04/22 07:56:47;;;;;;;40.30;23.00;;;;;;;10.23;77.21;97789.64;105949;1282;26678;-73
2022/04/22 07:59:14;;;;;;;48.70;24.50;;;;;;;10.20;77.29;97789.55;105683;1282;138659;-73
2022/04/22 08:01:41;;;;;;;47.60;25.00;;;;;;;10.19;77.42;97793.36;105731;1282;30264;-74
2022/04/22 08:04:10;;;;;;;47.10;25.30;;;;;;;10.20;77.66;97791.52;105730;1282;22585;-74
2022/04/22 08:06:37;;;;;;;40.80;23.00;;;;;;;10.24;77.56;97787.77;105924;1282;138744;-74
2022/04/22 08:09:04;;;;;;;43.50;25.30;;;;;;;10.24;77.23;97789.37;105888;1282;22642;-74
2022/04/22 08:11:31;;;;;;;44.00;24.10;;;;;;;10.23;77.25;97789.54;106107;1281;138200;-74
2022/04/22 08:14:12;;;;;;;42.30;24.90;;;;;;;10.20;77.03;97789.55;105862;1282;22631;-74
2022/04/22 08:16:39;;;;;;;49.30;27.00;;;;;;;10.18;77.05;97789.58;106030;1281;22568;-74
2022/04/22 08:19:21;;;;;;;48.80;26.00;;;;;;;10.14;77.37;97788.35;105618;1282;138003;-74
2022/04/22 08:21:48;;;;;;;45.00;25.10;;;;;;;10.15;77.26;97791.52;105577;1282;23019;-74
2022/04/22 08:24:14;;;;;;;51.10;26.10;;;;;;;10.15;77.41;97791.84;105532;1282;139074;-74
2022/04/22 08:26:42;;;;;;;53.40;27.10;;;;;;;10.19;77.42;97791.23;105567;1284;24413;-74
2022/04/22 08:29:09;;;;;;;52.40;27.20;;;;;;;10.29;77.54;97791.77;105414;1284;137985;-74
2022/04/22 08:31:36;;;;;;;47.40;26.80;;;;;;;10.37;77.45;97787.44;105909;1282;22573;-74
2022/04/22 08:34:03;;;;;;;52.90;28.50;;;;;;;10.47;77.56;97784.14;105613;1282;22560;-74
2022/04/22 08:36:32;;;;;;;49.70;25.90;;;;;;;10.59;77.42;97777.95;105606;1282;137896;-74
2022/04/22 08:38:59;;;;;;;48.50;25.80;;;;;;;10.71;77.25;97771.34;105675;1282;22566;-74
2022/04/22 08:41:29;;;;;;;47.40;25.10;;;;;;;10.81;76.95;97767.52;105456;1282;138759;-74
2022/04/22 08:43:56;;;;;;;46.50;26.10;;;;;;;10.87;76.74;97764.13;105594;1284;23298;-74
2022/04/22 08:52:02;;;;;;;52.00;27.70;;;;;;;11.13;75.85;97772.77;105656;1282;22566;-74
2022/04/22 08:54:30;;;;;;;47.90;27.10;;;;;;;11.18;75.94;97775.73;105529;1282;137932;-74
2022/04/22 08:56:58;;;;;;;50.40;26.70;;;;;;;11.20;75.21;97772.14;105848;1281;25259;-74
2022/04/22 08:59:26;;;;;;;47.20;25.10;;;;;;;11.24;75.42;97769.05;105753;1282;138631;-74
2022/04/22 09:01:56;;;;;;;53.30;27.00;;;;;;;11.28;75.41;97768.14;105590;1282;22622;-74
2022/04/22 09:04:23;;;;;;;58.30;28.50;;;;;;;11.35;75.52;97762.88;105533;1285;22547;-74
2022/04/22 09:06:52;;;;;;;55.00;28.10;;;;;;;11.41;75.22;97761.48;105512;1285;138064;-74
2022/04/22 09:09:19;;;;;;;53.10;28.40;;;;;;;11.47;74.62;97763.13;105450;1285;25393;-74
2022/04/22 09:12:10;;;;;;;49.20;24.10;;;;;;;11.52;74.42;97762.49;105495;1282;138016;-74
2022/04/22 09:14:49;;;;;;;49.40;26.30;;;;;;;11.53;74.02;97754.59;105724;1282;24335;-74
2022/04/22 09:17:27;;;;;;;51.40;27.00;;;;;;;11.54;73.72;97755.02;105768;1282;138329;-74
2022/04/22 09:19:57;;;;;;;52.80;24.60;;;;;;;11.45;73.67;97756.42;105690;1282;25350;-74
2022/04/22 09:22:26;;;;;;;51.50;27.10;;;;;;;11.34;73.48;97761.68;105671;1282;25352;-74
2022/04/22 09:24:55;;;;;;;46.80;23.70;;;;;;;11.23;73.58;97761.14;105622;1284;138167;-74
2022/04/22 09:27:38;;;;;;;52.90;24.50;;;;;;;11.13;73.60;97763.55;105508;1285;22565;-74
2022/04/22 09:30:07;;;;;;;53.40;27.00;;;;;;;11.02;74.17;97760.50;105528;1284;138598;-74
2022/04/22 09:32:39;;;;;;;51.00;26.10;;;;;;;10.89;74.35;97758.64;105672;1282;24335;-75
2022/04/22 09:35:08;;;;;;;46.70;24.80;;;;;;;10.72;74.35;97758.48;105566;1282;138831;-75
2022/04/22 09:43:45;;;;;;;30.30;16.10;;;;;;;10.54;75.20;97752.55;105562;1282;138137;-74
2022/04/22 09:46:33;;;;;;;31.20;16.10;;;;;;;10.53;75.57;97759.45;105632;1284;25383;-74
2022/04/22 09:49:00;;;;;;;30.80;16.40;;;;;;;10.48;75.13;97759.48;105437;1285;138665;-74
2022/04/22 09:51:33;;;;;;;27.80;15.30;;;;;;;10.47;75.20;97764.59;105356;1285;22569;-75
2022/04/22 09:54:05;;;;;;;27.10;16.60;;;;;;;10.49;75.87;97761.88;105635;1282;138160;-74
2022/04/22 09:56:33;;;;;;;28.00;15.70;;;;;;;10.51;75.47;97764.62;105677;1282;25275;-75
2022/04/22 09:59:24;;;;;;;30.50;17.00;;;;;;;10.47;75.08;97764.75;105586;1282;25388;-74
2022/04/22 10:01:52;;;;;;;31.50;17.00;;;;;;;10.39;75.28;97764.20;105475;1282;138318;-74
2022/04/22 10:04:21;;;;;;;27.00;15.90;;;;;;;10.29;75.55;97764.05;105647;1282;24321;-75
2022/04/22 10:06:49;;;;;;;;;;;;;;;10.25;75.59;97765.59;105508;1284;138849;-74
2022/04/22 10:09:17;;;;;;;33.40;18.50;;;;;;;10.21;75.63;97767.25;105328;1284;25355;-74
2022/04/22 10:11:59;;;;;;;39.00;19.40;;;;;;;10.21;75.78;97773.66;105463;1284;138400;-74
2022/04/22 10:14:38;;;;;;;33.90;18.50;;;;;;;10.21;75.55;97774.05;105912;1282;29862;-74
2022/04/22 10:17:06;;;;;;;35.40;18.90;;;;;;;10.19;75.37;97776.00;105694;1282;24091;-74
2022/04/22 10:19:34;;;;;;;32.00;16.90;;;;;;;10.18;75.48;97782.30;105617;1282;138846;-75
2022/04/22 10:22:02;;;;;;;33.30;17.70;;;;;;;10.16;75.57;97786.73;105456;1283;24331;-74
2022/04/22 10:24:31;;;;;;;30.00;16.10;;;;;;;10.13;75.64;97786.83;105528;1282;138683;-74
2022/04/22 10:27:03;;;;;;;27.80;16.30;;;;;;;10.09;75.50;97785.33;105582;1284;22548;-75
2022/04/22 10:29:33;;;;;;;30.00;15.00;;;;;;;10.05;75.61;97786.55;105484;1285;22548;-75
2022/04/22 10:32:03;;;;;;;31.60;16.10;;;;;;;10.01;75.52;97787.27;105474;1284;138336;-75
2022/04/22 10:34:45;;;;;;;26.60;15.30;;;;;;;9.94;75.44;97790.40;105813;1282;25354;-75
2022/04/22 10:37:19;;;;;;;30.00;17.00;;;;;;;9.91;75.60;97789.93;105672;1282;137911;-74
2022/04/22 10:39:51;;;;;;;26.40;14.10;;;;;;;9.85;75.64;97788.64;105680;1282;22673;-75
2022/04/22 10:42:38;;;;;;;25.50;14.80;;;;;;;9.83;75.86;97789.48;105340;1282;138379;-75
2022/04/22 10:47:49;;;;;;;25.40;14.70;;;;;;;9.79;75.87;97796.34;105084;1284;138635;-75
2022/04/22 10:50:38;;;;;;;25.60;15.10;;;;;;;9.78;75.85;97802.86;105084;1285;22573;-75
2022/04/22 10:53:10;;;;;;;29.20;16.70;;;;;;;9.78;76.02;97794.97;105130;1284;25358;-74
2022/04/22 10:55:41;;;;;;;27.10;16.30;;;;;;;9.76;75.90;97794.36;105421;1281;137739;-75
2022/04/22 10:58:14;;;;;;;28.90;16.80;;;;;;;9.72;75.93;97795.02;105486;1282;25239;-74
2022/04/22 11:00:59;;;;;;;33.00;18.60;;;;;;;9.68;75.98;97791.84;105136;1282;137991;-74
2022/04/22 11:03:55;;;;;;;30.00;17.70;;;;;;;9.71;75.93;97787.12;105438;1282;25438;-74
2022/04/22 11:06:22;;;;;;;30.30;17.90;;;;;;;9.78;75.86;97780.89;105202;1285;138505;-74
2022/04/22 11:09:04;;;;;;;27.20;16.40;;;;;;;9.84;75.82;97774.92;105586;1284;22704;-75
2022/04/22 11:11:42;;;;;;;25.90;16.50;;;;;;;9.91;75.28;97769.77;105469;1285;22586;-74
2022/04/22 11:14:23;;;;;;;22.50;14.40;;;;;;;9.95;75.23;97764.20;105533;1282;138041;-75
2022/04/22 11:16:51;;;;;;;26.20;16.70;;;;;;;9.98;75.23;97761.49;105378;1285;23311;-74
2022/04/22 11:19:18;;;;;;;22.30;14.40;;;;;;;10.04;75.34;97757.48;105666;1284;138429;-75
2022/04/22 11:21:47;;;;;;;21.10;13.70;;;;;;;10.13;74.93;97753.41;105572;1284;25263;-74
2022/04/22 11:24:24;;;;;;;21.70;13.30;;;;;;;10.26;74.94;97756.13;105386;1283;138837;-74
2022/04/22 11:26:52;;;;;;;22.90;14.00;;;;;;;10.40;74.71;97749.02;105627;1282;25501;-74
2022/04/22 11:29:20;;;;;;;28.80;16.90;;;;;;;10.52;74.13;97741.16;105735;1282;25238;-74
2022/04/22 11:32:09;;;;;;;27.20;16.60;;;;;;;10.71;74.32;97732.40;105582;1282;137822;-74
2022/04/22 11:35:03;;;;;;;26.00;15.80;;;;;;;10.90;74.05;97733.80;105491;1284;24746;-75
2022/04/22 11:37:30;;;;;;;26.80;16.60;;;;;;;11.09;73.50;97728.39;105695;1284;137877;-74
2022/04/22 11:39:57;;;;;;;24.90;16.50;;;;;;;11.22;72.80;97730.61;105695;1284;24283;-74
2022/04/22 11:42:25;;;;;;;28.20;19.00;;;;;;;11.35;72.36;97725.26;105527;1285;138471;-74
2022/04/22 11:45:06;;;;;;;27.60;19.00;;;;;;;11.43;71.97;97721.84;105705;1282;25378;-75
2022/04/22 11:47:33;;;;;;;29.80;20.40;;;;;;;11.52;71.67;97721.92;105526;1284;25588;-74
2022/04/22 11:50:00;;;;;;;28.70;19.20;;;;;;;11.61;72.12;97724.88;105295;1284;138125;-75
2022/04/22 11:52:41;;;;;;;34.90;21.60;;;;;;;11.70;71.26;97728.19;105658;1284;22587;-74
2022/04/22 11:55:08;;;;;;;28.60;19.70;;;;;;;11.77;71.38;97727.42;105366;1284;138188;-74
2022/04/22 11:57:37;;;;;;;27.90;20.80;;;;;;;11.83;71.24;97724.42;105663;1285;22582;-74
2022/04/22 12:05:54;;;;;;;19.10;14.90;;;;;;;11.93;69.45;97715.79;105527;1282;138469;-73
2022/04/22 12:08:21;;;;;;;17.90;13.60;;;;;;;11.96;69.23;97711.38;105595;1285;22570;-73
2022/04/22 12:10:50;;;;;;;21.00;15.80;;;;;;;11.97;68.25;97707.72;105499;1284;22562;-73
2022/04/22 12:13:18;;;;;;;17.90;14.80;;;;;;;11.97;68.10;97707.27;105415;1284;137912;-73
2022/04/22 12:15:48;;;;;;;20.30;14.60;;;;;;;11.98;67.99;97697.67;105628;1285;22540;-73
2022/04/22 12:18:40;;;;;;;21.90;16.10;;;;;;;12.00;68.04;97699.75;105510;1284;138072;-73
2022/04/22 12:21:12;;;;;;;17.70;13.60;;;;;;;12.05;68.38;97697.30;105659;1284;22582;-73
2022/04/22 12:23:42;;;;;;;19.30;13.60;;;;;;;12.10;68.36;97692.11;105644;1285;24343;-73